createdAt,value
2023-03-06T00:02:50.544Z,25.10
2023-03-06T00:05:11.957Z,25.10
2023-03-06T00:07:49.804Z,25.00
2023-03-06T00:10:33.133Z,25.00
2023-03-06T00:12:14.313Z,25.00
2023-03-06T00:12:51.126Z,24.80
2023-03-06T00:17:50.353Z,26.60
2023-03-06T00:22:50.692Z,25.00
2023-03-06T00:27:50.499Z,26.10
2023-03-06T00:30:29.866Z,26.10
2023-03-06T00:32:51.531Z,26.70
2023-03-06T00:37:49.762Z,26.10
2023-03-06T00:42:50.115Z,25.80
2023-03-06T00:47:49.972Z,26.00
2023-03-06T00:51:38.349Z,26.00
2023-03-06T00:52:49.985Z,27.10
2023-03-06T00:57:50.148Z,24.50
2023-03-06T01:02:50.478Z,25.10
2023-03-06T01:07:49.800Z,24.80
2023-03-06T01:12:50.021Z,25.30
2023-03-06T01:17:51.902Z,24.80
2023-03-06T01:18:38.489Z,24.80
2023-03-06T01:19:19.046Z,24.80
2023-03-06T01:22:49.834Z,25.30
2023-03-06T01:27:50.656Z,26.10
2023-03-06T01:32:49.725Z,25.70
2023-03-06T01:37:49.697Z,24.60
2023-03-06T01:42:50.062Z,25.70
2023-03-06T01:47:49.739Z,27.60
2023-03-06T01:52:52.123Z,27.80
2023-03-06T01:57:54.873Z,26.50
2023-03-06T02:02:52.859Z,27.40
2023-03-06T02:05:15.213Z,27.40
2023-03-06T02:07:50.504Z,24.90
2023-03-06T02:08:51.773Z,24.90
2023-03-06T02:12:51.015Z,25.70
2023-03-06T02:17:51.151Z,24.10
2023-03-06T02:22:56.172Z,23.20
2023-03-06T02:24:59.052Z,23.20
2023-03-06T02:27:49.663Z,24.20
2023-03-06T02:32:50.237Z,23.40
2023-03-06T02:37:50.373Z,23.20
2023-03-06T02:42:55.278Z,23.10
2023-03-06T02:47:50.017Z,24.10
2023-03-06T02:52:49.872Z,23.20
2023-03-06T02:57:49.703Z,22.40
2023-03-06T03:02:50.704Z,21.80
2023-03-06T03:07:49.590Z,22.80
2023-03-06T03:12:49.878Z,20.30
2023-03-06T03:16:13.017Z,21.10
2023-03-06T03:17:49.667Z,21.10
2023-03-06T03:22:51.837Z,22.10
2023-03-06T03:27:50.372Z,20.40
2023-03-06T03:30:22.407Z,20.40
2023-03-06T03:32:31.953Z,21.00
2023-03-06T03:32:49.887Z,21.00
2023-03-06T03:37:51.648Z,20.50
2023-03-06T03:42:49.801Z,20.20
2023-03-06T03:47:49.637Z,19.30
2023-03-06T03:52:49.548Z,19.70
2023-03-06T03:57:49.886Z,19.90
2023-03-06T04:02:48.557Z,19.70
2023-03-06T04:02:49.400Z,19.70
2023-03-06T04:04:21.570Z,19.70
2023-03-06T04:07:49.639Z,19.00
2023-03-06T04:09:53.301Z,19.00
2023-03-06T04:12:49.701Z,19.00
2023-03-06T04:17:49.640Z,20.80
2023-03-06T04:19:14.811Z,20.80
2023-03-06T04:22:49.924Z,20.90
2023-03-06T04:27:49.589Z,28.30
2023-03-06T04:32:49.725Z,22.60
2023-03-06T04:36:32.054Z,20.10
2023-03-06T04:37:49.507Z,20.10
2023-03-06T04:42:49.818Z,22.80
2023-03-06T04:47:49.797Z,21.40
2023-03-06T04:52:49.689Z,21.50
2023-03-06T04:57:49.497Z,20.10
2023-03-06T05:02:50.365Z,20.30
2023-03-06T05:07:49.633Z,19.20
2023-03-06T05:12:49.945Z,21.00
2023-03-06T05:17:49.728Z,20.30
2023-03-06T05:22:50.296Z,19.30
2023-03-06T05:27:49.485Z,19.90
2023-03-06T05:32:50.384Z,19.80
2023-03-06T05:37:49.740Z,20.10
2023-03-06T05:42:49.710Z,20.80
2023-03-06T05:47:49.872Z,21.90
2023-03-06T05:52:49.591Z,21.50
2023-03-06T05:57:50.134Z,22.40
2023-03-06T06:02:49.975Z,21.30
2023-03-06T06:07:49.466Z,21.10
2023-03-06T06:12:49.648Z,21.70
2023-03-06T06:17:50.109Z,21.40
2023-03-06T06:22:50.347Z,20.90
2023-03-06T06:27:49.385Z,21.20
2023-03-06T06:32:49.872Z,21.50
2023-03-06T06:37:49.639Z,21.30
2023-03-06T06:42:51.561Z,21.00
2023-03-06T06:47:50.009Z,21.50
2023-03-06T06:52:49.502Z,21.00
2023-03-06T06:57:49.378Z,19.30
2023-03-06T07:02:50.343Z,19.60
2023-03-06T07:07:50.508Z,19.00
2023-03-06T07:12:49.381Z,18.00
2023-03-06T07:17:50.346Z,18.10
2023-03-06T07:22:51.656Z,17.80
2023-03-06T07:27:53.616Z,16.30
2023-03-06T07:32:51.608Z,14.90
2023-03-06T07:37:50.194Z,15.40
2023-03-06T07:42:52.596Z,17.60
2023-03-06T07:47:50.090Z,14.60
2023-03-06T07:52:50.580Z,13.20
2023-03-06T07:57:49.949Z,13.30
2023-03-06T08:02:49.783Z,11.70
2023-03-06T08:07:49.342Z,8.10
2023-03-06T08:12:49.383Z,8.90
2023-03-06T08:17:49.760Z,10.20
2023-03-06T08:22:49.556Z,10.50
2023-03-06T08:27:49.566Z,11.40
2023-03-06T08:32:49.741Z,12.20
2023-03-06T08:37:49.347Z,12.80
2023-03-06T08:42:49.398Z,11.80
2023-03-06T08:47:49.909Z,11.70
2023-03-06T08:52:49.325Z,10.10
2023-03-06T08:57:49.485Z,10.40
2023-03-06T09:02:49.931Z,12.00
2023-03-06T09:07:49.428Z,11.00
2023-03-06T09:12:52.444Z,10.10
2023-03-06T09:17:50.186Z,9.60
2023-03-06T09:22:49.339Z,9.40
2023-03-06T09:28:01.772Z,9.90
2023-03-06T09:32:49.566Z,10.00
2023-03-06T09:37:49.332Z,9.90
2023-03-06T09:42:49.585Z,9.90
2023-03-06T09:47:55.086Z,10.20
2023-03-06T09:53:01.797Z,11.00
2023-03-06T09:57:54.671Z,11.30
2023-03-06T10:02:59.969Z,11.60
2023-03-06T10:07:54.245Z,11.50
2023-03-06T10:13:01.252Z,10.00
2023-03-06T10:17:49.937Z,10.50
2023-03-06T10:23:03.037Z,10.00
2023-03-06T10:27:52.980Z,9.80
2023-03-06T10:32:54.702Z,9.50
2023-03-06T10:37:49.399Z,9.20
2023-03-06T10:42:56.200Z,8.90
2023-03-06T10:47:49.890Z,9.10
2023-03-06T10:52:58.591Z,9.90
2023-03-06T10:57:49.283Z,9.00
2023-03-06T11:03:04.183Z,9.60
2023-03-06T11:07:54.699Z,9.60
2023-03-06T11:12:56.452Z,8.20
2023-03-06T11:17:53.995Z,6.70
2023-03-06T11:22:54.012Z,7.10
2023-03-06T11:27:55.155Z,8.30
2023-03-06T11:32:54.599Z,11.90
2023-03-06T11:37:53.205Z,13.50
2023-03-06T11:42:58.506Z,12.50
2023-03-06T11:47:57.076Z,11.20
2023-03-06T11:52:53.469Z,11.20
2023-03-06T11:57:57.529Z,11.30
2023-03-06T12:03:03.363Z,12.70
2023-03-06T12:07:57.057Z,11.10
2023-03-06T12:13:06.765Z,10.30
2023-03-06T12:17:58.949Z,8.80
2023-03-06T12:22:58.059Z,8.70
2023-03-06T12:27:55.238Z,8.60
2023-03-06T12:32:55.008Z,9.30
2023-03-06T12:38:02.410Z,10.30
2023-03-06T12:43:04.861Z,10.50
2023-03-06T12:47:53.384Z,10.20
2023-03-06T12:52:51.463Z,11.40
2023-03-06T12:57:49.983Z,10.70
2023-03-06T13:03:05.512Z,9.60
2023-03-06T13:07:59.816Z,11.10
2023-03-06T13:12:54.871Z,12.60
2023-03-06T13:17:49.185Z,15.20
2023-03-06T13:22:49.232Z,13.00
2023-03-06T13:28:00.227Z,12.60
2023-03-06T13:32:51.801Z,12.00
2023-03-06T13:37:49.687Z,11.40
2023-03-06T13:43:01.171Z,12.30
2023-03-06T13:48:21.174Z,19.40
2023-03-06T13:53:02.429Z,21.90
2023-03-06T13:58:02.477Z,17.00
2023-03-06T14:03:02.185Z,15.80
2023-03-06T14:08:03.166Z,17.70
2023-03-06T14:13:00.404Z,18.70
2023-03-06T14:17:55.491Z,17.80
2023-03-06T14:22:49.402Z,19.80
2023-03-06T14:27:55.003Z,20.90
2023-03-06T14:32:51.475Z,22.30
2023-03-06T14:37:52.245Z,22.20
2023-03-06T14:43:08.979Z,22.70
2023-03-06T14:47:50.666Z,22.30
2023-03-06T14:52:54.404Z,21.40
2023-03-06T14:57:54.987Z,23.00
2023-03-06T15:02:50.613Z,22.30
2023-03-06T15:07:51.952Z,25.90
2023-03-06T15:12:49.119Z,25.70
2023-03-06T15:17:49.244Z,25.60
2023-03-06T15:22:49.569Z,26.00
2023-03-06T15:27:50.881Z,27.90
2023-03-06T15:32:49.277Z,27.90
2023-03-06T15:37:49.678Z,27.30
2023-03-06T15:42:49.413Z,29.10
2023-03-06T15:47:51.266Z,27.50
2023-03-06T15:52:49.463Z,29.00
2023-03-06T15:57:51.970Z,31.50
2023-03-06T16:02:49.103Z,31.90
2023-03-06T16:07:49.955Z,32.30
2023-03-06T16:12:52.948Z,30.20
2023-03-06T16:17:48.934Z,30.00
2023-03-06T16:22:50.326Z,32.20
2023-03-06T16:27:54.443Z,33.10
2023-03-06T16:32:49.291Z,31.70
2023-03-06T16:37:49.718Z,31.80
2023-03-06T16:42:50.027Z,32.90
2023-03-06T16:47:49.691Z,33.40
2023-03-06T16:52:50.811Z,33.70
2023-03-06T16:57:49.305Z,34.90
2023-03-06T17:02:50.469Z,35.20
2023-03-06T17:07:49.481Z,36.30
2023-03-06T17:12:49.137Z,37.40
2023-03-06T17:17:50.619Z,35.90
2023-03-06T17:22:49.406Z,38.00
2023-03-06T17:27:49.119Z,33.70
2023-03-06T17:32:48.879Z,35.30
2023-03-06T17:37:49.958Z,33.20
2023-03-06T17:42:49.778Z,34.70
2023-03-06T17:47:52.473Z,34.70
2023-03-06T17:52:49.287Z,32.80
2023-03-06T17:57:50.910Z,32.40
2023-03-06T18:02:49.007Z,29.10
2023-03-06T18:07:49.170Z,29.50
2023-03-06T18:12:49.293Z,29.50
2023-03-06T18:17:49.035Z,29.30
2023-03-06T18:22:49.134Z,29.10
2023-03-06T18:27:48.813Z,30.00
2023-03-06T18:32:50.017Z,29.90
2023-03-06T18:37:49.020Z,31.30
2023-03-06T18:42:50.861Z,29.90
2023-03-06T18:47:48.849Z,30.90
2023-03-06T18:52:49.477Z,29.60
2023-03-06T18:57:48.810Z,31.60
2023-03-06T19:02:49.022Z,31.50
2023-03-06T19:07:48.980Z,31.20
2023-03-06T19:12:48.945Z,29.70
2023-03-06T19:17:48.865Z,29.70
2023-03-06T19:22:49.796Z,30.70
2023-03-06T19:27:48.887Z,29.30
2023-03-06T19:32:48.887Z,30.30
2023-03-06T19:37:49.287Z,30.90
2023-03-06T19:42:49.451Z,31.80
2023-03-06T19:47:49.568Z,31.10
2023-03-06T19:52:51.378Z,32.10
2023-03-06T19:57:48.906Z,31.10
2023-03-06T20:02:49.014Z,30.90
2023-03-06T20:07:49.661Z,28.60
2023-03-06T20:12:48.934Z,25.50
2023-03-06T20:18:09.776Z,25.10
2023-03-06T20:22:48.829Z,20.80
2023-03-06T20:27:48.821Z,23.10
2023-03-06T20:32:49.254Z,24.00
2023-03-06T20:37:48.817Z,23.20
2023-03-06T20:42:48.858Z,21.20
2023-03-06T20:47:48.915Z,20.00
2023-03-06T20:52:52.638Z,20.50
2023-03-06T20:57:49.417Z,19.30
2023-03-06T21:02:49.061Z,18.70
2023-03-06T21:07:48.712Z,17.20
2023-03-06T21:12:48.973Z,17.50
2023-03-06T21:17:48.843Z,18.50
2023-03-06T21:22:50.246Z,19.60
2023-03-06T21:27:49.112Z,20.30
2023-03-06T21:32:50.135Z,20.20
2023-03-06T21:37:48.862Z,18.30
2023-03-06T21:42:48.793Z,20.10
2023-03-06T21:47:49.079Z,19.60
2023-03-06T21:52:48.931Z,20.80
2023-03-06T21:57:49.847Z,22.00
2023-03-06T22:02:49.391Z,21.60
2023-03-06T22:07:48.678Z,22.70
2023-03-06T22:12:48.902Z,24.20
2023-03-06T22:17:48.899Z,26.60
2023-03-06T22:22:48.778Z,26.70
2023-03-06T22:27:48.723Z,27.90
2023-03-06T22:32:51.446Z,29.70
2023-03-06T22:37:48.798Z,27.80
2023-03-06T22:42:48.810Z,29.30
2023-03-06T22:47:48.927Z,29.30
2023-03-06T22:52:48.731Z,29.60
2023-03-06T22:57:48.877Z,27.60
2023-03-06T23:02:48.853Z,29.50
2023-03-06T23:07:48.588Z,30.20
2023-03-06T23:12:48.759Z,29.30
2023-03-06T23:17:50.227Z,33.20
2023-03-06T23:22:48.606Z,34.80
2023-03-06T23:27:48.661Z,34.30
2023-03-06T23:32:48.916Z,35.40
2023-03-06T23:37:48.631Z,34.10
2023-03-06T23:42:48.758Z,35.60
2023-03-06T23:47:48.635Z,34.70
2023-03-06T23:52:50.537Z,35.50
2023-03-06T23:57:48.705Z,34.80
